Time;durP1;ratioP1;P1;durP2;ratioP2;P2;SDS_P1;SDS_P2;PMS_P1;PMS_P2;Temp;Humidity;BMP_temperature;BMP_pressure;BME280_temperature;BME280_humidity;BME280_pressure;Samples;Min_cycle;Max_cycle;Signal;HPM_P1;HPM_P2
2023/03/10 00:00:50;;;;;;;25.83;23.60;;;;;;;-141.22;100.00;65034.22;4962061;29;21178;-45
2023/03/10 00:03:17;;;;;;;27.87;25.27;;;;;;;-141.22;100.00;65034.22;4962405;28;20981;-47
2023/03/10 00:05:46;;;;;;;25.97;23.67;;;;;;;-141.22;100.00;65034.22;4962706;28;21048;-48
2023/03/10 00:08:15;;;;;;;26.70;24.23;;;;;;;-141.22;100.00;65034.22;4962978;29;20432;-46
2023/03/10 00:10:42;;;;;;;26.73;24.30;;;;;;;-141.22;100.00;65034.22;4962308;29;20455;-45
2023/03/10 00:13:10;;;;;;;27.00;24.37;;;;;;;-141.22;100.00;65034.22;4962057;29;20448;-46
2023/03/10 00:15:38;;;;;;;27.20;24.97;;;;;;;-141.22;100.00;65034.22;4961814;28;21024;-46
2023/03/10 00:18:05;;;;;;;27.70;25.10;;;;;;;-141.22;100.00;65034.22;4962555;29;20455;-48
2023/03/10 00:20:33;;;;;;;29.07;25.67;;;;;;;-141.22;100.00;65034.22;4961416;29;20436;-44
2023/03/10 00:23:01;;;;;;;29.13;26.30;;;;;;;-141.22;100.00;65034.22;4962069;29;20456;-46
2023/03/10 00:25:34;;;;;;;26.17;23.67;;;;;;;-141.22;100.00;65034.22;4961434;28;21009;-44
2023/03/10 00:28:02;;;;;;;29.03;26.30;;;;;;;-141.22;100.00;65034.22;4961774;29;20958;-45
2023/03/10 00:30:33;;;;;;;28.23;25.73;;;;;;;-141.22;100.00;65034.22;4960914;29;20448;-45
2023/03/10 00:33:01;;;;;;;29.13;26.23;;;;;;;-141.22;100.00;65034.22;4962051;29;20538;-45
2023/03/10 00:35:29;;;;;;;28.93;26.40;;;;;;;-141.22;100.00;65034.22;4961158;28;21029;-44
2023/03/10 00:37:57;;;;;;;30.43;27.43;;;;;;;-141.22;100.00;65034.22;4962241;29;20459;-49
2023/03/10 00:40:24;;;;;;;30.83;27.93;;;;;;;-141.22;100.00;65034.22;4961636;29;20858;-47
2023/03/10 00:42:53;;;;;;;31.37;28.17;;;;;;;-141.22;100.00;65034.22;4961770;28;20520;-45
2023/03/10 00:45:21;;;;;;;30.60;27.70;;;;;;;-141.22;100.00;65034.22;4962101;28;20463;-44
2023/03/10 00:47:49;;;;;;;29.50;26.90;;;;;;;-141.22;100.00;65034.22;4957934;29;20502;-44
2023/03/10 00:50:17;;;;;;;31.93;29.07;;;;;;;-141.22;100.00;65034.22;4954953;29;20436;-45
2023/03/10 00:52:44;;;;;;;32.17;29.03;;;;;;;-141.22;100.00;65034.22;4954993;28;20983;-44
2023/03/10 00:55:12;;;;;;;31.20;28.20;;;;;;;-141.22;100.00;65034.22;4954388;28;20442;-45
2023/03/10 00:57:40;;;;;;;30.93;28.13;;;;;;;-141.22;100.00;65034.22;4954649;29;20436;-43
2023/03/10 01:00:13;;;;;;;33.77;30.57;;;;;;;-141.22;100.00;65034.22;4955088;29;20483;-44
2023/03/10 01:02:41;;;;;;;34.73;31.53;;;;;;;-141.22;100.00;65034.22;4954466;29;20454;-46
2023/03/10 01:05:10;;;;;;;33.37;30.37;;;;;;;-141.22;100.00;65034.22;4954307;28;20829;-45
2023/03/10 01:07:38;;;;;;;36.77;33.20;;;;;;;-141.22;100.00;65034.22;4954875;29;20435;-46
2023/03/10 01:10:06;;;;;;;31.53;28.93;;;;;;;-141.22;100.00;65034.22;4954555;29;20443;-44
2023/03/10 01:12:34;;;;;;;34.53;31.33;;;;;;;-141.22;100.00;65034.22;4953918;29;20439;-46
2023/03/10 01:15:02;;;;;;;34.50;31.40;;;;;;;-141.22;100.00;65034.22;4953792;28;20432;-44
2023/03/10 01:17:31;;;;;;;34.33;31.50;;;;;;;-141.22;100.00;65034.22;4954393;29;20439;-45
2023/03/10 01:19:59;;;;;;;37.07;33.93;;;;;;;-141.22;100.00;65034.22;4954429;29;20435;-46
2023/03/10 01:22:26;;;;;;;36.60;33.30;;;;;;;-141.22;100.00;65034.22;4953982;29;20431;-46
2023/03/10 01:24:54;;;;;;;35.00;32.03;;;;;;;-141.22;100.00;65034.22;4953854;28;20446;-44
2023/03/10 01:27:22;;;;;;;36.13;33.07;;;;;;;-141.22;100.00;65034.22;4954223;28;20510;-45
2023/03/10 01:29:50;;;;;;;36.67;33.77;;;;;;;-141.22;100.00;65034.22;4953797;29;20431;-43
2023/03/10 01:32:17;;;;;;;37.03;33.80;;;;;;;-141.22;100.00;65034.22;4953263;29;20444;-45
2023/03/10 01:34:47;;;;;;;38.80;35.40;;;;;;;-141.22;100.00;65034.22;4953689;29;20455;-44
2023/03/10 01:37:14;;;;;;;41.33;37.73;;;;;;;-141.22;100.00;65034.22;4953571;28;20459;-46
2023/03/10 01:39:42;;;;;;;41.97;38.57;;;;;;;-141.22;100.00;65034.22;4953568;29;20433;-45
2023/03/10 01:42:10;;;;;;;39.93;36.87;;;;;;;-141.22;100.00;65034.22;4953315;29;20940;-44
2023/03/10 01:44:38;;;;;;;44.10;40.60;;;;;;;-141.22;100.00;65034.22;4953941;29;20554;-48
2023/03/10 01:47:05;;;;;;;43.53;39.97;;;;;;;-141.22;100.00;65034.22;4953561;28;20511;-46
2023/03/10 01:49:39;;;;;;;44.07;40.10;;;;;;;-141.22;100.00;65034.22;4954019;29;20934;-44
2023/03/10 01:52:12;;;;;;;45.40;41.50;;;;;;;-141.22;100.00;65034.22;4953659;29;20435;-43
2023/03/10 01:54:48;;;;;;;44.27;40.47;;;;;;;-141.22;100.00;65034.22;4953105;28;20983;-44
2023/03/10 01:57:20;;;;;;;46.20;42.70;;;;;;;-141.22;100.00;65034.22;4953154;28;20491;-44
2023/03/10 01:59:48;;;;;;;48.30;44.40;;;;;;;-141.22;100.00;65034.22;4954015;29;20482;-44
2023/03/10 02:02:16;;;;;;;48.53;44.73;;;;;;;-141.22;100.00;65034.22;4953623;29;20439;-47
2023/03/10 02:04:47;;;;;;;50.70;47.00;;;;;;;-141.22;100.00;65034.22;4953646;29;20514;-46
2023/03/10 02:07:19;;;;;;;49.80;46.13;;;;;;;-141.22;100.00;65034.22;4953118;28;20566;-43
2023/03/10 02:09:50;;;;;;;50.37;46.50;;;;;;;-141.22;100.00;65034.22;4953427;29;20929;-44
2023/03/10 02:12:18;;;;;;;51.30;47.50;;;;;;;-141.22;100.00;65034.22;4953623;29;20428;-44
2023/03/10 02:14:48;;;;;;;52.53;48.70;;;;;;;-141.22;100.00;65034.22;4953604;29;20478;-44
2023/03/10 02:17:20;;;;;;;53.87;49.50;;;;;;;-141.22;100.00;65034.22;4953240;28;20460;-44
2023/03/10 02:20:04;;;;;;;57.30;53.07;;;;;;;-141.22;100.00;65034.22;4953133;29;20444;-44
2023/03/10 02:22:33;;;;;;;57.63;53.33;;;;;;;-141.22;100.00;65034.22;4952503;29;20467;-45
2023/03/10 02:25:10;;;;;;;58.87;54.90;;;;;;;-141.22;100.00;65034.22;4952550;28;20805;-46
2023/03/10 02:27:39;;;;;;;60.80;55.87;;;;;;;-141.22;100.00;65034.22;4953390;29;20471;-45
2023/03/10 02:30:11;;;;;;;60.73;56.37;;;;;;;-141.22;100.00;65034.22;4953318;29;20458;-47
2023/03/10 02:32:43;;;;;;;65.90;61.30;;;;;;;-141.22;100.00;65034.22;4953005;29;20440;-46
2023/03/10 02:35:11;;;;;;;63.90;59.80;;;;;;;-141.22;100.00;65034.22;4952880;28;20428;-46
2023/03/10 02:37:39;;;;;;;63.40;58.73;;;;;;;-141.22;100.00;65034.22;4953323;29;20432;-44
2023/03/10 02:40:28;;;;;;;66.30;61.50;;;;;;;-141.22;100.00;65034.22;4953247;29;20435;-47
2023/03/10 02:42:58;;;;;;;66.70;61.97;;;;;;;-141.22;100.00;65034.22;4952635;29;20439;-44
2023/03/10 02:45:29;;;;;;;72.20;67.30;;;;;;;-141.22;100.00;65034.22;4952658;28;20459;-45
2023/03/10 02:47:56;;;;;;;72.30;67.80;;;;;;;-141.22;100.00;65034.22;4952876;29;20479;-44
2023/03/10 02:50:29;;;;;;;75.43;69.90;;;;;;;-141.22;100.00;65034.22;4952957;29;20432;-47
2023/03/10 02:53:04;;;;;;;75.90;70.53;;;;;;;-141.22;100.00;65034.22;4952950;29;20463;-46
2023/03/10 02:55:31;;;;;;;79.37;74.37;;;;;;;-141.22;100.00;65034.22;4952094;28;20545;-44
2023/03/10 02:58:01;;;;;;;78.67;73.77;;;;;;;-141.22;100.00;65034.22;4952985;29;20454;-44
2023/03/10 03:00:29;;;;;;;79.60;74.07;;;;;;;-141.22;100.00;65034.22;4953226;29;20450;-45
2023/03/10 03:02:57;;;;;;;82.00;76.37;;;;;;;-141.22;100.00;65034.22;4952283;29;20890;-44
2023/03/10 03:05:25;;;;;;;79.67;74.77;;;;;;;-141.22;100.00;65034.22;4951951;28;20546;-44
2023/03/10 03:07:52;;;;;;;79.40;74.37;;;;;;;-141.22;100.00;65034.22;4956096;29;20521;-44
2023/03/10 03:10:20;;;;;;;82.83;77.90;;;;;;;-141.22;100.00;65034.22;4957017;29;20435;-46
2023/03/10 03:12:49;;;;;;;77.73;73.13;;;;;;;-141.22;100.00;65034.22;4956528;29;20470;-44
2023/03/10 03:15:19;;;;;;;78.13;73.20;;;;;;;-141.22;100.00;65034.22;4956411;28;20463;-44
2023/03/10 03:17:47;;;;;;;79.13;74.43;;;;;;;-141.22;100.00;65034.22;4956279;29;20432;-46
2023/03/10 03:20:16;;;;;;;77.00;72.20;;;;;;;-141.22;100.00;65034.22;4956312;29;21066;-44
2023/03/10 03:22:45;;;;;;;85.57;79.70;;;;;;;-141.22;100.00;65034.22;4956225;29;20443;-44
2023/03/10 03:25:14;;;;;;;77.00;71.57;;;;;;;-141.22;100.00;65034.22;4956052;28;20420;-44
2023/03/10 03:27:43;;;;;;;78.77;73.57;;;;;;;-141.22;100.00;65034.22;4956653;29;20479;-44
2023/03/10 03:30:15;;;;;;;80.53;75.70;;;;;;;-141.22;100.00;65034.22;4956608;29;20440;-47
2023/03/10 03:32:44;;;;;;;78.37;73.47;;;;;;;-141.22;100.00;65034.22;4955938;29;20981;-46
2023/03/10 03:35:15;;;;;;;85.30;79.77;;;;;;;-141.22;100.00;65034.22;4955876;28;20463;-47
2023/03/10 03:37:43;;;;;;;77.27;72.43;;;;;;;-141.22;100.00;65034.22;4956440;29;20427;-47
2023/03/10 03:40:13;;;;;;;74.47;70.00;;;;;;;-141.22;100.00;65034.22;4956715;29;20435;-47
2023/03/10 03:42:41;;;;;;;70.83;66.27;;;;;;;-141.22;100.00;65034.22;4955969;29;20431;-44
2023/03/10 03:45:10;;;;;;;69.73;65.13;;;;;;;-141.22;100.00;65034.22;4955331;28;20862;-46
2023/03/10 03:47:38;;;;;;;74.17;69.37;;;;;;;-141.22;100.00;65034.22;4956166;28;20826;-45
2023/03/10 03:50:09;;;;;;;67.63;63.03;;;;;;;-141.22;100.00;65034.22;4956205;29;20901;-44
2023/03/10 03:52:37;;;;;;;65.67;61.17;;;;;;;-141.22;100.00;65034.22;4955882;29;20432;-46
2023/03/10 03:55:06;;;;;;;72.07;66.90;;;;;;;-141.22;100.00;65034.22;4955642;28;20455;-49
2023/03/10 03:57:33;;;;;;;67.03;62.43;;;;;;;-141.22;100.00;65034.22;4955845;29;20432;-45
2023/03/10 04:00:02;;;;;;;67.13;62.83;;;;;;;-141.22;100.00;65034.22;4955968;29;20430;-44
2023/03/10 04:02:33;;;;;;;65.77;61.00;;;;;;;-141.22;100.00;65034.22;4955740;29;20443;-44
2023/03/10 04:05:01;;;;;;;66.70;61.63;;;;;;;-141.22;100.00;65034.22;4955578;28;20866;-44
2023/03/10 04:07:31;;;;;;;68.20;63.37;;;;;;;-141.22;100.00;65034.22;4955521;29;20984;-44
2023/03/10 04:09:59;;;;;;;81.00;73.90;;;;;;;-141.22;100.00;65034.22;4955643;29;20439;-47
2023/03/10 04:12:28;;;;;;;71.50;65.30;;;;;;;-141.22;100.00;65034.22;4955414;29;20980;-45
2023/03/10 04:14:56;;;;;;;64.93;60.13;;;;;;;-141.22;100.00;65034.22;4955232;28;20830;-44
2023/03/10 04:17:23;;;;;;;62.10;57.40;;;;;;;-141.22;100.00;65034.22;4955423;28;20771;-47
2023/03/10 04:19:51;;;;;;;61.57;56.77;;;;;;;-141.22;100.00;65034.22;4955677;29;20444;-44
2023/03/10 04:22:35;;;;;;;57.27;52.47;;;;;;;-141.22;100.00;65034.22;4955337;29;20436;-44
2023/03/10 04:25:05;;;;;;;55.83;51.50;;;;;;;-141.22;100.00;65034.22;4955064;28;20810;-45
2023/03/10 04:27:33;;;;;;;53.10;48.70;;;;;;;-141.22;100.00;65034.22;4955404;29;20485;-46
2023/03/10 04:30:00;;;;;;;52.10;47.63;;;;;;;-141.22;100.00;65034.22;4955278;29;20440;-44
2023/03/10 04:32:28;;;;;;;45.90;42.37;;;;;;;-141.22;100.00;65034.22;4955081;29;20440;-45
2023/03/10 04:34:56;;;;;;;47.43;43.73;;;;;;;-141.22;100.00;65034.22;4955003;28;20459;-44
2023/03/10 04:37:25;;;;;;;46.53;43.03;;;;;;;-141.22;100.00;65034.22;4955101;28;20428;-45
2023/03/10 04:39:54;;;;;;;42.83;39.80;;;;;;;-141.22;100.00;65034.22;4955183;29;20436;-46
2023/03/10 04:42:22;;;;;;;44.50;41.30;;;;;;;-141.22;100.00;65034.22;4953437;29;20450;-46
2023/03/10 04:44:50;;;;;;;42.70;39.50;;;;;;;-141.22;100.00;65034.22;4954654;29;20455;-45
2023/03/10 04:47:18;;;;;;;45.60;42.27;;;;;;;-141.22;100.00;65034.22;4953882;29;20487;-44
2023/03/10 04:49:46;;;;;;;44.40;41.10;;;;;;;-141.22;100.00;65034.22;4955023;29;20440;-47
2023/03/10 04:52:14;;;;;;;44.33;40.80;;;;;;;-141.22;100.00;65034.22;4955165;29;20442;-44
2023/03/10 04:54:41;;;;;;;40.53;37.23;;;;;;;-141.22;100.00;65034.22;4954929;29;20458;-45
2023/03/10 04:57:10;;;;;;;41.47;38.17;;;;;;;-141.22;100.00;65034.22;4954255;28;20889;-47
2023/03/10 04:59:38;;;;;;;42.00;38.50;;;;;;;-141.22;100.00;65034.22;4954729;29;20929;-46
2023/03/10 05:02:05;;;;;;;42.97;39.33;;;;;;;-141.22;100.00;65034.22;4954636;29;20569;-44
2023/03/10 05:04:33;;;;;;;43.43;40.10;;;;;;;-141.22;100.00;65034.22;4954564;28;20475;-45
2023/03/10 05:07:01;;;;;;;43.47;39.87;;;;;;;-141.22;100.00;65034.22;4954485;28;20460;-47
2023/03/10 05:09:29;;;;;;;43.97;40.67;;;;;;;-141.22;100.00;65034.22;4954936;29;20479;-46
2023/03/10 05:11:56;;;;;;;45.33;41.50;;;;;;;-141.22;100.00;65034.22;4954622;29;20447;-47
2023/03/10 05:14:25;;;;;;;42.87;39.53;;;;;;;-141.22;100.00;65034.22;4954652;29;20455;-46
2023/03/10 05:16:53;;;;;;;47.20;43.10;;;;;;;-141.22;100.00;65034.22;4954042;28;20479;-46
2023/03/10 05:19:21;;;;;;;46.40;42.80;;;;;;;-141.22;100.00;65034.22;4954307;28;20451;-44
2023/03/10 05:21:48;;;;;;;48.10;43.60;;;;;;;-141.22;100.00;65034.22;4954355;29;20524;-48
2023/03/10 05:24:16;;;;;;;48.10;43.80;;;;;;;-141.22;100.00;65034.22;4954091;29;20455;-44
2023/03/10 05:26:44;;;;;;;49.33;45.03;;;;;;;-141.22;100.00;65034.22;4953966;28;20471;-45
2023/03/10 05:29:11;;;;;;;50.00;45.50;;;;;;;-141.22;100.00;65034.22;4953161;28;20486;-45
2023/03/10 05:31:41;;;;;;;51.10;46.40;;;;;;;-141.22;100.00;65034.22;4953754;29;20442;-50
2023/03/10 05:34:09;;;;;;;50.13;45.30;;;;;;;-141.22;100.00;65034.22;4954070;29;20464;-49
2023/03/10 05:36:36;;;;;;;52.80;48.10;;;;;;;-141.22;100.00;65034.22;4953623;28;20558;-48
2023/03/10 05:39:05;;;;;;;51.40;46.97;;;;;;;-141.22;100.00;65034.22;4954245;29;20440;-48
2023/03/10 05:41:33;;;;;;;52.27;47.57;;;;;;;-141.22;100.00;65034.22;4954392;29;20448;-48
2023/03/10 05:44:00;;;;;;;52.10;47.20;;;;;;;-141.22;100.00;65034.22;4953722;29;20455;-46
2023/03/10 05:46:29;;;;;;;51.27;46.63;;;;;;;-141.22;100.00;65034.22;4953772;28;21201;-45
2023/03/10 05:48:58;;;;;;;51.33;45.80;;;;;;;-141.22;100.00;65034.22;4953907;29;20537;-46
2023/03/10 05:51:26;;;;;;;46.53;42.60;;;;;;;-141.22;100.00;65034.22;4953976;29;20447;-45
2023/03/10 05:53:53;;;;;;;47.33;43.23;;;;;;;-141.22;100.00;65034.22;4953694;29;20455;-43
2023/03/10 05:56:21;;;;;;;45.23;41.70;;;;;;;-141.22;100.00;65034.22;4953471;28;20474;-50
2023/03/10 05:58:50;;;;;;;45.73;41.73;;;;;;;-141.22;100.00;65034.22;4953993;29;20427;-46
2023/03/10 06:01:18;;;;;;;43.57;39.87;;;;;;;-141.22;100.00;65034.22;4953840;29;20438;-47
2023/03/10 06:03:46;;;;;;;42.00;38.70;;;;;;;-141.22;100.00;65034.22;4953334;29;20486;-43
2023/03/10 06:06:15;;;;;;;42.03;38.73;;;;;;;-141.22;100.00;65034.22;4953089;28;20558;-46
2023/03/10 06:08:43;;;;;;;38.73;35.77;;;;;;;-141.22;100.00;65034.22;4953380;29;20472;-45
2023/03/10 06:11:10;;;;;;;40.17;36.90;;;;;;;-141.22;100.00;65034.22;4953591;29;20439;-45
2023/03/10 06:13:38;;;;;;;41.03;37.83;;;;;;;-141.22;100.00;65034.22;4953294;28;20456;-48
2023/03/10 06:16:07;;;;;;;38.97;36.10;;;;;;;-141.22;100.00;65034.22;4953008;28;20470;-47
2023/03/10 06:18:35;;;;;;;40.13;37.07;;;;;;;-141.22;100.00;65034.22;4953496;29;20435;-44
2023/03/10 06:21:06;;;;;;;37.17;34.53;;;;;;;-141.22;100.00;65034.22;4953681;29;20444;-50
2023/03/10 06:23:35;;;;;;;41.20;38.20;;;;;;;-141.22;100.00;65034.22;4953180;29;20452;-46
2023/03/10 06:26:05;;;;;;;38.60;35.70;;;;;;;-141.22;100.00;65034.22;4953282;28;20485;-44
2023/03/10 06:28:35;;;;;;;35.97;33.43;;;;;;;-141.22;100.00;65034.22;4953285;29;20514;-46
2023/03/10 06:31:06;;;;;;;37.00;34.00;;;;;;;-141.22;100.00;65034.22;4953671;29;20526;-46
2023/03/10 06:33:34;;;;;;;36.63;33.93;;;;;;;-141.22;100.00;65034.22;4952912;29;20803;-47
2023/03/10 06:36:02;;;;;;;35.77;32.87;;;;;;;-141.22;100.00;65034.22;4952674;28;20464;-45
2023/03/10 06:38:30;;;;;;;34.23;31.87;;;;;;;-141.22;100.00;65034.22;4953340;28;20431;-44
2023/03/10 06:40:59;;;;;;;35.17;32.57;;;;;;;-141.22;100.00;65034.22;4952911;28;20442;-46
2023/03/10 06:43:27;;;;;;;35.63;32.70;;;;;;;-141.22;100.00;65034.22;4953182;29;20546;-44
2023/03/10 06:45:54;;;;;;;38.30;35.30;;;;;;;-141.22;100.00;65034.22;4952445;28;20464;-45
2023/03/10 06:48:22;;;;;;;36.40;33.67;;;;;;;-141.22;100.00;65034.22;4952990;28;20475;-47
2023/03/10 06:50:50;;;;;;;38.23;35.23;;;;;;;-141.22;100.00;65034.22;4953046;29;20444;-44
2023/03/10 06:53:19;;;;;;;35.30;32.57;;;;;;;-141.22;100.00;65034.22;4953583;29;20489;-45
2023/03/10 06:55:57;;;;;;;34.87;32.30;;;;;;;-141.22;100.00;65034.22;4952115;28;20471;-44
2023/03/10 06:58:26;;;;;;;34.13;31.87;;;;;;;-141.22;100.00;65034.22;4953111;29;20445;-44
2023/03/10 07:00:54;;;;;;;35.17;32.60;;;;;;;-141.22;100.00;65034.22;4953080;29;20428;-44
2023/03/10 07:03:24;;;;;;;33.73;31.40;;;;;;;-141.22;100.00;65034.22;4952620;29;20530;-44
2023/03/10 07:05:52;;;;;;;32.20;29.90;;;;;;;-141.22;100.00;65034.22;4952418;28;20467;-44
2023/03/10 07:08:20;;;;;;;32.70;30.60;;;;;;;-141.22;100.00;65034.22;4952936;29;20809;-44
2023/03/10 07:10:48;;;;;;;32.80;30.50;;;;;;;-141.22;100.00;65034.22;4952840;29;20435;-44
2023/03/10 07:13:18;;;;;;;33.23;30.83;;;;;;;-141.22;100.00;65034.22;4952922;29;20455;-44
2023/03/10 07:15:48;;;;;;;34.00;31.40;;;;;;;-141.22;100.00;65034.22;4951895;28;20467;-44
2023/03/10 07:18:16;;;;;;;33.30;30.83;;;;;;;-141.22;100.00;65034.22;4953113;29;20459;-44
2023/03/10 07:20:46;;;;;;;34.53;31.90;;;;;;;-141.22;100.00;65034.22;4952950;29;20439;-49
2023/03/10 07:23:14;;;;;;;32.43;30.03;;;;;;;-141.22;100.00;65034.22;4952785;29;20465;-45
2023/03/10 07:25:42;;;;;;;34.00;31.27;;;;;;;-141.22;100.00;65034.22;4952358;28;20866;-46
2023/03/10 07:28:10;;;;;;;33.97;31.57;;;;;;;-141.22;100.00;65034.22;4952683;29;20440;-47
2023/03/10 07:30:39;;;;;;;31.03;28.90;;;;;;;-141.22;100.00;65034.22;4952991;29;20482;-45
2023/03/10 07:33:08;;;;;;;32.50;30.17;;;;;;;-141.22;100.00;65034.22;4952568;29;20867;-49
2023/03/10 07:35:36;;;;;;;31.37;29.13;;;;;;;-141.22;100.00;65034.22;4952297;28;20478;-44
2023/03/10 07:38:04;;;;;;;32.10;29.90;;;;;;;-141.22;100.00;65034.22;4952730;29;20846;-44
2023/03/10 07:40:32;;;;;;;32.00;29.43;;;;;;;-141.22;100.00;65034.22;4952677;29;20958;-47
2023/03/10 07:43:01;;;;;;;30.93;28.93;;;;;;;-141.22;100.00;65034.22;4952690;29;20456;-45
2023/03/10 07:45:29;;;;;;;32.13;29.93;;;;;;;-141.22;100.00;65034.22;4952430;28;20464;-44
2023/03/10 07:47:57;;;;;;;31.53;29.30;;;;;;;-141.22;100.00;65034.22;4952466;29;20464;-44
2023/03/10 07:50:26;;;;;;;31.47;29.37;;;;;;;-141.22;100.00;65034.22;4952974;29;20875;-45
2023/03/10 07:52:55;;;;;;;33.57;31.10;;;;;;;-141.22;100.00;65034.22;4954272;28;20455;-44
2023/03/10 07:55:22;;;;;;;31.17;29.13;;;;;;;-141.22;100.00;65034.22;4954987;28;20467;-45
2023/03/10 07:57:50;;;;;;;31.57;29.30;;;;;;;-141.22;100.00;65034.22;4955885;29;20501;-44
2023/03/10 08:00:18;;;;;;;31.73;29.73;;;;;;;-141.22;100.00;65034.22;4955918;29;20434;-44
2023/03/10 08:02:46;;;;;;;32.23;29.93;;;;;;;-141.22;100.00;65034.22;4955625;29;20841;-44
2023/03/10 08:05:14;;;;;;;31.47;29.00;;;;;;;-141.22;100.00;65034.22;4955585;28;20462;-50
2023/03/10 08:07:44;;;;;;;32.53;30.13;;;;;;;-141.22;100.00;65034.22;4955807;28;20444;-44
2023/03/10 08:10:12;;;;;;;31.07;28.97;;;;;;;-141.22;100.00;65034.22;4955891;29;20482;-44
2023/03/10 08:12:40;;;;;;;33.30;30.77;;;;;;;-141.22;100.00;65034.22;4955527;29;20459;-45
2023/03/10 08:15:09;;;;;;;30.20;28.00;;;;;;;-141.22;100.00;65034.22;4955115;28;20440;-46
2023/03/10 08:17:37;;;;;;;31.40;29.20;;;;;;;-141.22;100.00;65034.22;4955671;29;20450;-46
2023/03/10 08:20:06;;;;;;;30.53;28.23;;;;;;;-141.22;100.00;65034.22;4955617;29;20468;-47
2023/03/10 08:22:34;;;;;;;31.13;28.90;;;;;;;-141.22;100.00;65034.22;4955142;29;20443;-44
2023/03/10 08:25:04;;;;;;;31.13;28.90;;;;;;;-141.22;100.00;65034.22;4955050;28;20526;-46
2023/03/10 08:27:31;;;;;;;32.37;29.90;;;;;;;-141.22;100.00;65034.22;4955612;29;20813;-46
2023/03/10 08:29:59;;;;;;;30.00;27.80;;;;;;;-141.22;100.00;65034.22;4955534;29;20475;-45
2023/03/10 08:32:27;;;;;;;29.70;27.67;;;;;;;-141.22;100.00;65034.22;4954617;29;20938;-47
2023/03/10 08:34:55;;;;;;;32.07;29.50;;;;;;;-141.22;100.00;65034.22;4954839;28;20519;-46
2023/03/10 08:37:22;;;;;;;32.13;29.80;;;;;;;-141.22;100.00;65034.22;4955372;29;20427;-44
2023/03/10 08:39:53;;;;;;;31.07;28.60;;;;;;;-141.22;100.00;65034.22;4955152;29;20432;-45
2023/03/10 08:42:22;;;;;;;31.13;28.67;;;;;;;-141.22;100.00;65034.22;4955171;29;20424;-47
2023/03/10 08:44:49;;;;;;;31.43;29.00;;;;;;;-141.22;100.00;65034.22;4955024;29;20470;-44
2023/03/10 08:47:17;;;;;;;29.80;27.70;;;;;;;-141.22;100.00;65034.22;4954552;28;20472;-47
2023/03/10 08:49:45;;;;;;;29.57;27.37;;;;;;;-141.22;100.00;65034.22;4954714;29;20483;-44
2023/03/10 08:52:15;;;;;;;31.13;28.93;;;;;;;-141.22;100.00;65034.22;4954911;29;20432;-46
2023/03/10 08:54:43;;;;;;;32.17;29.60;;;;;;;-141.22;100.00;65034.22;4954964;29;20510;-46
2023/03/10 08:57:11;;;;;;;30.03;28.20;;;;;;;-141.22;100.00;65034.22;4954489;28;20468;-45
2023/03/10 08:59:40;;;;;;;31.93;29.53;;;;;;;-141.22;100.00;65034.22;4954945;29;20435;-49
2023/03/10 09:02:13;;;;;;;30.30;28.10;;;;;;;-141.22;100.00;65034.22;4954526;29;20549;-45
2023/03/10 09:04:41;;;;;;;29.70;27.23;;;;;;;-141.22;100.00;65034.22;4954673;28;20440;-45
2023/03/10 09:07:09;;;;;;;30.50;28.20;;;;;;;-141.22;100.00;65034.22;4954399;28;20463;-45
2023/03/10 09:09:36;;;;;;;29.70;27.50;;;;;;;-141.22;100.00;65034.22;4954572;29;20475;-44
2023/03/10 09:12:05;;;;;;;30.83;28.67;;;;;;;-141.22;100.00;65034.22;4954382;29;20830;-45
2023/03/10 09:14:33;;;;;;;30.97;28.60;;;;;;;-141.22;100.00;65034.22;4954267;29;20483;-45
2023/03/10 09:17:02;;;;;;;30.77;28.10;;;;;;;-141.22;100.00;65034.22;4954362;28;20471;-49
2023/03/10 09:19:30;;;;;;;28.80;26.77;;;;;;;-141.22;100.00;65034.22;4954817;29;20514;-46
2023/03/10 09:21:58;;;;;;;29.87;27.77;;;;;;;-141.22;100.00;65034.22;4955004;29;20439;-50
2023/03/10 09:24:26;;;;;;;29.57;27.67;;;;;;;-141.22;100.00;65034.22;4954263;29;20803;-44
2023/03/10 09:26:54;;;;;;;27.33;25.43;;;;;;;-141.22;100.00;65034.22;4953889;28;20456;-49
2023/03/10 09:29:22;;;;;;;28.97;27.10;;;;;;;-141.22;100.00;65034.22;4954742;29;20428;-45
2023/03/10 09:32:10;;;;;;;27.63;25.83;;;;;;;-141.22;100.00;65034.22;4954352;28;20949;-46
2023/03/10 09:34:39;;;;;;;26.57;24.87;;;;;;;-141.22;100.00;65034.22;4954345;29;20502;-48
2023/03/10 09:37:07;;;;;;;28.47;26.53;;;;;;;-141.22;100.00;65034.22;4953507;28;20885;-46
2023/03/10 09:39:35;;;;;;;28.53;26.50;;;;;;;-141.22;100.00;65034.22;4954131;29;20930;-44
2023/03/10 09:42:49;;;;;;;26.20;24.57;;;;;;;-141.22;100.00;65034.22;4954139;29;20443;-46
2023/03/10 09:45:47;;;;;;;25.97;24.40;;;;;;;-141.22;100.00;65034.22;4953605;28;20463;-47
2023/03/10 09:48:53;;;;;;;27.60;25.80;;;;;;;-141.22;100.00;65034.22;4953185;29;20511;-45
2023/03/10 09:52:03;;;;;;;27.17;25.37;;;;;;;-141.22;100.00;65034.22;4953396;28;20507;-46
2023/03/10 09:55:04;;;;;;;28.10;26.10;;;;;;;-141.22;100.00;65034.22;4952422;29;20495;-44
2023/03/10 09:57:47;;;;;;;29.73;27.53;;;;;;;-141.22;100.00;65034.22;4954008;29;20535;-45
2023/03/10 10:00:32;;;;;;;28.33;26.33;;;;;;;-141.22;100.00;65034.22;4953325;28;20854;-47
2023/03/10 10:03:40;;;;;;;28.30;26.37;;;;;;;-141.22;100.00;65034.22;4953546;28;20580;-45
2023/03/10 10:06:52;;;;;;;28.97;26.83;;;;;;;-141.22;100.00;65034.22;4952892;28;20619;-44
2023/03/10 10:13:24;;;;;;;28.47;26.27;;;;;;;-141.22;100.00;65034.22;4953516;28;20530;-44
2023/03/10 10:19:58;;;;;;;28.73;26.60;;;;;;;-141.22;100.00;65034.22;4953218;28;20527;-45
2023/03/10 10:22:54;;;;;;;26.97;25.00;;;;;;;-141.22;100.00;65034.22;4952453;29;20518;-44
2023/03/10 10:26:01;;;;;;;27.80;25.60;;;;;;;-141.22;100.00;65034.22;4951744;28;20471;-49
2023/03/10 10:29:14;;;;;;;28.37;26.30;;;;;;;-141.22;100.00;65034.22;4952457;29;20813;-47
2023/03/10 10:38:32;;;;;;;28.53;26.33;;;;;;;-141.22;100.00;65034.22;4952668;29;20467;-44
2023/03/10 10:44:22;;;;;;;26.10;24.20;;;;;;;-141.22;100.00;65034.22;4952454;28;20455;-47
2023/03/10 10:50:23;;;;;;;23.60;22.30;;;;;;;-141.22;100.00;65034.22;4953589;29;20515;-48
2023/03/10 10:53:38;;;;;;;23.47;22.17;;;;;;;-141.22;100.00;65034.22;4952614;28;20873;-44
2023/03/10 10:59:41;;;;;;;19.37;18.27;;;;;;;-141.22;100.00;65034.22;4952610;29;20439;-46
2023/03/10 11:08:49;;;;;;;20.07;18.73;;;;;;;-141.22;100.00;65034.22;4952979;29;20434;-46
2023/03/10 11:12:19;;;;;;;19.17;17.97;;;;;;;-141.22;100.00;65034.22;4952590;28;20487;-44
2023/03/10 11:18:39;;;;;;;21.20;19.40;;;;;;;-141.22;100.00;65034.22;4951983;29;20463;-45
2023/03/10 11:24:57;;;;;;;24.40;22.50;;;;;;;-141.22;100.00;65034.22;4950912;28;20541;-48
2023/03/10 11:27:50;;;;;;;21.83;20.40;;;;;;;-141.22;100.00;65034.22;4953717;28;20537;-45
2023/03/10 11:31:07;;;;;;;22.20;20.60;;;;;;;-141.22;100.00;65034.22;4956261;28;20479;-45
2023/03/10 11:34:03;;;;;;;20.70;19.33;;;;;;;-141.22;100.00;65034.22;4956396;29;20438;-45
2023/03/10 11:36:49;;;;;;;22.27;20.57;;;;;;;-141.22;100.00;65034.22;4955110;28;20467;-45
2023/03/10 11:39:44;;;;;;;20.47;19.07;;;;;;;-141.22;100.00;65034.22;4957976;28;20475;-46
2023/03/10 11:42:44;;;;;;;20.67;18.80;;;;;;;-141.22;100.00;65034.22;4955944;29;20906;-46
2023/03/10 11:45:41;;;;;;;19.33;17.97;;;;;;;-141.22;100.00;65034.22;4942751;28;20510;-45
2023/03/10 11:52:42;;;;;;;18.43;17.10;;;;;;;-141.22;100.00;65034.22;4956233;28;20474;-49
2023/03/10 12:02:31;;;;;;;16.33;15.27;;;;;;;-141.22;100.00;65034.22;4955783;28;20450;-44
2023/03/10 12:05:22;;;;;;;14.30;13.30;;;;;;;-141.22;100.00;65034.22;4954026;28;20846;-45